sensor_id;sensor_type;location;lat;lon;timestamp;temperature;humidity
22813;DHT22;11573;51.334;3.244;2022-12-28T00:01:20;8.30;99.90
22813;DHT22;11573;51.334;3.244;2022-12-28T00:03:48;8.20;99.90
22813;DHT22;11573;51.334;3.244;2022-12-28T00:06:16;8.30;99.90
22813;DHT22;11573;51.334;3.244;2022-12-28T00:08:43;8.30;99.90
22813;DHT22;11573;51.334;3.244;2022-12-28T00:11:13;8.30;99.90
22813;DHT22;11573;51.334;3.244;2022-12-28T00:13:55;8.30;99.90
22813;DHT22;11573;51.334;3.244;2022-12-28T00:16:29;8.30;99.90
22813;DHT22;11573;51.334;3.244;2022-12-28T00:18:58;8.30;99.90
22813;DHT22;11573;51.334;3.244;2022-12-28T00:21:26;8.30;99.90
22813;DHT22;11573;51.334;3.244;2022-12-28T00:23:56;8.30;99.90
22813;DHT22;11573;51.334;3.244;2022-12-28T00:26:29;8.30;99.90
22813;DHT22;11573;51.334;3.244;2022-12-28T00:28:56;8.30;99.90
22813;DHT22;11573;51.334;3.244;2022-12-28T00:31:32;8.30;99.90
22813;DHT22;11573;51.334;3.244;2022-12-28T00:34:00;8.40;99.90
22813;DHT22;11573;51.334;3.244;2022-12-28T00:36:27;8.40;99.90
22813;DHT22;11573;51.334;3.244;2022-12-28T00:39:14;8.40;99.90
22813;DHT22;11573;51.334;3.244;2022-12-28T00:41:41;8.40;99.90
22813;DHT22;11573;51.334;3.244;2022-12-28T00:44:09;8.40;99.90
22813;DHT22;11573;51.334;3.244;2022-12-28T00:46:36;8.40;99.90
22813;DHT22;11573;51.334;3.244;2022-12-28T00:49:03;8.40;99.90
22813;DHT22;11573;51.334;3.244;2022-12-28T00:51:32;8.40;99.90
22813;DHT22;11573;51.334;3.244;2022-12-28T00:53:59;8.40;99.90
22813;DHT22;11573;51.334;3.244;2022-12-28T00:56:26;8.40;99.90
22813;DHT22;11573;51.334;3.244;2022-12-28T00:58:58;8.50;99.90
22813;DHT22;11573;51.334;3.244;2022-12-28T01:01:26;8.50;99.90
22813;DHT22;11573;51.334;3.244;2022-12-28T01:03:57;8.50;99.90
22813;DHT22;11573;51.334;3.244;2022-12-28T01:06:25;8.50;99.90
22813;DHT22;11573;51.334;3.244;2022-12-28T01:08:53;8.50;99.90
22813;DHT22;11573;51.334;3.244;2022-12-28T01:11:26;8.50;99.90
22813;DHT22;11573;51.334;3.244;2022-12-28T01:13:56;8.50;99.90
22813;DHT22;11573;51.334;3.244;2022-12-28T01:16:29;8.50;99.90
22813;DHT22;11573;51.334;3.244;2022-12-28T01:18:59;8.50;99.90
22813;DHT22;11573;51.334;3.244;2022-12-28T01:21:30;8.50;99.90
22813;DHT22;11573;51.334;3.244;2022-12-28T01:23:59;8.50;99.90
22813;DHT22;11573;51.334;3.244;2022-12-28T01:26:28;8.50;99.90
22813;DHT22;11573;51.334;3.244;2022-12-28T01:28:56;8.50;99.90
22813;DHT22;11573;51.334;3.244;2022-12-28T01:31:23;8.50;99.90
22813;DHT22;11573;51.334;3.244;2022-12-28T01:33:50;8.50;99.90
22813;DHT22;11573;51.334;3.244;2022-12-28T01:36:20;8.50;99.90
22813;DHT22;11573;51.334;3.244;2022-12-28T01:38:47;8.50;99.90
22813;DHT22;11573;51.334;3.244;2022-12-28T01:41:18;8.50;99.90
22813;DHT22;11573;51.334;3.244;2022-12-28T01:43:46;8.60;99.90
22813;DHT22;11573;51.334;3.244;2022-12-28T01:46:16;8.60;99.90
22813;DHT22;11573;51.334;3.244;2022-12-28T01:51:19;8.60;99.90
22813;DHT22;11573;51.334;3.244;2022-12-28T01:53:48;8.70;99.90
22813;DHT22;11573;51.334;3.244;2022-12-28T01:56:16;8.70;99.90
22813;DHT22;11573;51.334;3.244;2022-12-28T01:58:44;8.70;99.90
22813;DHT22;11573;51.334;3.244;2022-12-28T02:01:11;8.70;99.90
22813;DHT22;11573;51.334;3.244;2022-12-28T02:03:39;8.80;99.90
22813;DHT22;11573;51.334;3.244;2022-12-28T02:06:08;8.80;99.90
22813;DHT22;11573;51.334;3.244;2022-12-28T02:08:51;8.80;99.90
22813;DHT22;11573;51.334;3.244;2022-12-28T02:11:19;8.80;99.90
22813;DHT22;11573;51.334;3.244;2022-12-28T02:13:49;8.80;99.90
22813;DHT22;11573;51.334;3.244;2022-12-28T02:16:17;8.80;99.90
22813;DHT22;11573;51.334;3.244;2022-12-28T02:18:45;8.80;99.90
22813;DHT22;11573;51.334;3.244;2022-12-28T02:27:00;8.80;99.90
22813;DHT22;11573;51.334;3.244;2022-12-28T02:29:44;8.80;99.90
22813;DHT22;11573;51.334;3.244;2022-12-28T02:38:00;8.80;99.90
22813;DHT22;11573;51.334;3.244;2022-12-28T02:40:33;8.80;99.90
22813;DHT22;11573;51.334;3.244;2022-12-28T02:43:01;8.80;99.90
22813;DHT22;11573;51.334;3.244;2022-12-28T02:48:25;8.90;99.90
22813;DHT22;11573;51.334;3.244;2022-12-28T02:51:45;8.90;99.90
22813;DHT22;11573;51.334;3.244;2022-12-28T03:00:09;9.00;99.90
22813;DHT22;11573;51.334;3.244;2022-12-28T03:08:08;9.00;99.90
22813;DHT22;11573;51.334;3.244;2022-12-28T03:11:01;9.00;99.90
22813;DHT22;11573;51.334;3.244;2022-12-28T03:16:20;9.00;99.90
22813;DHT22;11573;51.334;3.244;2022-12-28T03:18:56;9.00;99.90
22813;DHT22;11573;51.334;3.244;2022-12-28T03:21:45;9.00;99.90
22813;DHT22;11573;51.334;3.244;2022-12-28T03:24:33;9.00;99.90
22813;DHT22;11573;51.334;3.244;2022-12-28T03:27:23;9.10;99.90
22813;DHT22;11573;51.334;3.244;2022-12-28T03:30:13;9.10;99.90
22813;DHT22;11573;51.334;3.244;2022-12-28T03:32:59;9.10;99.90
22813;DHT22;11573;51.334;3.244;2022-12-28T03:38:18;9.00;99.90
22813;DHT22;11573;51.334;3.244;2022-12-28T03:41:18;9.00;99.90
22813;DHT22;11573;51.334;3.244;2022-12-28T03:43:53;9.00;99.90
22813;DHT22;11573;51.334;3.244;2022-12-28T03:46:23;9.00;99.90
22813;DHT22;11573;51.334;3.244;2022-12-28T03:48:57;9.00;99.90
22813;DHT22;11573;51.334;3.244;2022-12-28T03:51:27;8.90;99.90
22813;DHT22;11573;51.334;3.244;2022-12-28T03:53:55;9.00;99.90
22813;DHT22;11573;51.334;3.244;2022-12-28T03:56:25;8.90;99.90
22813;DHT22;11573;51.334;3.244;2022-12-28T03:58:55;9.00;99.90
22813;DHT22;11573;51.334;3.244;2022-12-28T04:01:30;9.00;99.90
22813;DHT22;11573;51.334;3.244;2022-12-28T04:03:57;9.00;99.90
22813;DHT22;11573;51.334;3.244;2022-12-28T04:06:24;9.00;99.90
22813;DHT22;11573;51.334;3.244;2022-12-28T04:08:53;9.00;99.90
22813;DHT22;11573;51.334;3.244;2022-12-28T04:11:21;9.00;99.90
22813;DHT22;11573;51.334;3.244;2022-12-28T04:13:52;9.00;99.90
22813;DHT22;11573;51.334;3.244;2022-12-28T04:16:20;9.00;99.90
22813;DHT22;11573;51.334;3.244;2022-12-28T04:18:47;9.00;99.90
22813;DHT22;11573;51.334;3.244;2022-12-28T04:21:14;9.10;99.90
22813;DHT22;11573;51.334;3.244;2022-12-28T04:23:43;9.00;99.90
22813;DHT22;11573;51.334;3.244;2022-12-28T04:26:20;9.10;99.90
22813;DHT22;11573;51.334;3.244;2022-12-28T04:28:50;9.10;99.90
22813;DHT22;11573;51.334;3.244;2022-12-28T04:31:37;9.10;99.90
22813;DHT22;11573;51.334;3.244;2022-12-28T04:34:11;9.10;99.90
22813;DHT22;11573;51.334;3.244;2022-12-28T04:36:44;9.10;99.90
22813;DHT22;11573;51.334;3.244;2022-12-28T04:39:13;9.10;99.90
22813;DHT22;11573;51.334;3.244;2022-12-28T04:41:40;9.10;99.90
22813;DHT22;11573;51.334;3.244;2022-12-28T04:44:07;9.10;99.90
22813;DHT22;11573;51.334;3.244;2022-12-28T04:46:34;9.20;99.90
22813;DHT22;11573;51.334;3.244;2022-12-28T04:49:02;9.20;99.90
22813;DHT22;11573;51.334;3.244;2022-12-28T04:51:29;9.20;99.90
22813;DHT22;11573;51.334;3.244;2022-12-28T04:53:56;9.20;99.90
22813;DHT22;11573;51.334;3.244;2022-12-28T04:56:25;9.20;99.90
22813;DHT22;11573;51.334;3.244;2022-12-28T04:58:54;9.20;99.90
22813;DHT22;11573;51.334;3.244;2022-12-28T05:01:21;9.20;99.90
22813;DHT22;11573;51.334;3.244;2022-12-28T05:03:50;9.30;99.90
22813;DHT22;11573;51.334;3.244;2022-12-28T05:06:23;9.30;99.90
22813;DHT22;11573;51.334;3.244;2022-12-28T05:08:50;9.30;99.90
22813;DHT22;11573;51.334;3.244;2022-12-28T05:11:23;9.30;99.90
22813;DHT22;11573;51.334;3.244;2022-12-28T05:13:50;9.30;99.90
22813;DHT22;11573;51.334;3.244;2022-12-28T05:16:20;9.30;99.90
22813;DHT22;11573;51.334;3.244;2022-12-28T05:18:47;9.30;99.90
22813;DHT22;11573;51.334;3.244;2022-12-28T05:21:19;9.30;99.90
22813;DHT22;11573;51.334;3.244;2022-12-28T05:23:47;9.30;99.90
22813;DHT22;11573;51.334;3.244;2022-12-28T05:26:16;9.30;99.90
22813;DHT22;11573;51.334;3.244;2022-12-28T05:28:44;9.30;99.90
22813;DHT22;11573;51.334;3.244;2022-12-28T05:31:14;9.30;99.90
22813;DHT22;11573;51.334;3.244;2022-12-28T05:33:41;9.30;99.90
22813;DHT22;11573;51.334;3.244;2022-12-28T05:36:20;9.30;99.90
22813;DHT22;11573;51.334;3.244;2022-12-28T05:38:48;9.30;99.90
22813;DHT22;11573;51.334;3.244;2022-12-28T05:43:42;9.30;99.90
22813;DHT22;11573;51.334;3.244;2022-12-28T05:46:12;9.30;99.90
22813;DHT22;11573;51.334;3.244;2022-12-28T05:48:40;9.30;99.90
22813;DHT22;11573;51.334;3.244;2022-12-28T05:51:16;9.30;99.90
22813;DHT22;11573;51.334;3.244;2022-12-28T05:53:44;9.40;99.90
22813;DHT22;11573;51.334;3.244;2022-12-28T05:56:16;9.40;99.90
22813;DHT22;11573;51.334;3.244;2022-12-28T05:58:45;9.40;99.90
22813;DHT22;11573;51.334;3.244;2022-12-28T06:01:20;9.40;99.90
22813;DHT22;11573;51.334;3.244;2022-12-28T06:03:52;9.40;99.90
22813;DHT22;11573;51.334;3.244;2022-12-28T06:06:19;9.50;99.90
22813;DHT22;11573;51.334;3.244;2022-12-28T06:08:47;9.50;99.90
22813;DHT22;11573;51.334;3.244;2022-12-28T06:11:23;9.50;99.90
22813;DHT22;11573;51.334;3.244;2022-12-28T06:13:51;9.50;99.90
22813;DHT22;11573;51.334;3.244;2022-12-28T06:16:19;9.50;99.90
22813;DHT22;11573;51.334;3.244;2022-12-28T06:18:47;9.50;99.90
22813;DHT22;11573;51.334;3.244;2022-12-28T06:21:14;9.50;99.90
22813;DHT22;11573;51.334;3.244;2022-12-28T06:23:43;9.60;99.90
22813;DHT22;11573;51.334;3.244;2022-12-28T06:26:12;9.60;99.90
22813;DHT22;11573;51.334;3.244;2022-12-28T06:28:41;9.60;99.90
22813;DHT22;11573;51.334;3.244;2022-12-28T06:31:19;9.60;99.90
22813;DHT22;11573;51.334;3.244;2022-12-28T06:33:48;9.60;99.90
22813;DHT22;11573;51.334;3.244;2022-12-28T06:36:16;9.50;99.90
22813;DHT22;11573;51.334;3.244;2022-12-28T06:38:47;9.50;99.90
22813;DHT22;11573;51.334;3.244;2022-12-28T06:41:16;9.50;99.90
22813;DHT22;11573;51.334;3.244;2022-12-28T06:43:44;9.40;99.90
22813;DHT22;11573;51.334;3.244;2022-12-28T06:46:13;9.40;99.90
22813;DHT22;11573;51.334;3.244;2022-12-28T06:48:40;9.40;99.90
22813;DHT22;11573;51.334;3.244;2022-12-28T06:51:16;9.40;99.90
22813;DHT22;11573;51.334;3.244;2022-12-28T06:53:44;9.40;99.90
22813;DHT22;11573;51.334;3.244;2022-12-28T06:56:32;9.50;99.90
22813;DHT22;11573;51.334;3.244;2022-12-28T06:59:00;9.40;99.90
22813;DHT22;11573;51.334;3.244;2022-12-28T07:01:35;9.50;99.90
22813;DHT22;11573;51.334;3.244;2022-12-28T07:04:05;9.50;99.90
22813;DHT22;11573;51.334;3.244;2022-12-28T07:06:41;9.50;99.90
22813;DHT22;11573;51.334;3.244;2022-12-28T07:09:12;9.50;99.90
22813;DHT22;11573;51.334;3.244;2022-12-28T07:11:39;9.50;99.90
22813;DHT22;11573;51.334;3.244;2022-12-28T07:14:06;9.60;99.90
22813;DHT22;11573;51.334;3.244;2022-12-28T07:16:34;9.60;99.90
22813;DHT22;11573;51.334;3.244;2022-12-28T07:19:00;9.60;99.90
22813;DHT22;11573;51.334;3.244;2022-12-28T07:21:33;9.60;99.90
22813;DHT22;11573;51.334;3.244;2022-12-28T07:24:00;9.60;99.90
22813;DHT22;11573;51.334;3.244;2022-12-28T07:26:30;9.60;99.90
22813;DHT22;11573;51.334;3.244;2022-12-28T07:29:00;9.60;99.90
22813;DHT22;11573;51.334;3.244;2022-12-28T07:31:32;9.60;99.90
22813;DHT22;11573;51.334;3.244;2022-12-28T07:34:09;9.70;99.90
22813;DHT22;11573;51.334;3.244;2022-12-28T07:36:36;9.70;99.90
22813;DHT22;11573;51.334;3.244;2022-12-28T07:39:03;9.70;99.90
22813;DHT22;11573;51.334;3.244;2022-12-28T07:41:32;9.70;99.90
22813;DHT22;11573;51.334;3.244;2022-12-28T07:44:00;9.70;99.90
22813;DHT22;11573;51.334;3.244;2022-12-28T07:46:29;9.70;99.90
22813;DHT22;11573;51.334;3.244;2022-12-28T07:48:56;9.70;99.90
22813;DHT22;11573;51.334;3.244;2022-12-28T07:51:24;9.70;99.90
22813;DHT22;11573;51.334;3.244;2022-12-28T07:53:53;9.70;99.90
22813;DHT22;11573;51.334;3.244;2022-12-28T07:56:22;9.70;99.90
22813;DHT22;11573;51.334;3.244;2022-12-28T07:58:51;9.70;99.90
22813;DHT22;11573;51.334;3.244;2022-12-28T08:01:20;9.70;99.90
22813;DHT22;11573;51.334;3.244;2022-12-28T08:03:51;9.70;99.90
22813;DHT22;11573;51.334;3.244;2022-12-28T08:06:19;9.80;99.90
22813;DHT22;11573;51.334;3.244;2022-12-28T08:08:48;9.70;99.90
22813;DHT22;11573;51.334;3.244;2022-12-28T08:11:20;9.80;99.90
22813;DHT22;11573;51.334;3.244;2022-12-28T08:13:49;9.80;99.90
22813;DHT22;11573;51.334;3.244;2022-12-28T08:16:18;9.80;99.90
22813;DHT22;11573;51.334;3.244;2022-12-28T08:18:46;9.70;99.90
22813;DHT22;11573;51.334;3.244;2022-12-28T08:21:20;9.70;99.90
22813;DHT22;11573;51.334;3.244;2022-12-28T08:23:48;9.80;99.90
22813;DHT22;11573;51.334;3.244;2022-12-28T08:26:20;9.80;99.90
22813;DHT22;11573;51.334;3.244;2022-12-28T08:28:49;9.80;99.90
22813;DHT22;11573;51.334;3.244;2022-12-28T08:31:21;9.80;99.90
22813;DHT22;11573;51.334;3.244;2022-12-28T08:33:49;9.80;99.90
22813;DHT22;11573;51.334;3.244;2022-12-28T08:36:17;9.80;99.90
22813;DHT22;11573;51.334;3.244;2022-12-28T08:38:44;9.90;99.90
22813;DHT22;11573;51.334;3.244;2022-12-28T08:41:14;9.90;99.90
22813;DHT22;11573;51.334;3.244;2022-12-28T08:43:43;9.90;99.90
22813;DHT22;11573;51.334;3.244;2022-12-28T08:46:13;10.00;99.90
22813;DHT22;11573;51.334;3.244;2022-12-28T08:48:43;10.00;99.90
22813;DHT22;11573;51.334;3.244;2022-12-28T08:51:36;10.00;99.90
22813;DHT22;11573;51.334;3.244;2022-12-28T08:54:02;10.00;99.90
22813;DHT22;11573;51.334;3.244;2022-12-28T08:56:31;9.90;99.90
22813;DHT22;11573;51.334;3.244;2022-12-28T08:58:59;9.90;99.90
22813;DHT22;11573;51.334;3.244;2022-12-28T09:01:31;9.90;99.90
22813;DHT22;11573;51.334;3.244;2022-12-28T09:04:10;9.90;99.90
22813;DHT22;11573;51.334;3.244;2022-12-28T09:06:38;9.90;99.90
22813;DHT22;11573;51.334;3.244;2022-12-28T09:09:07;9.90;99.90
22813;DHT22;11573;51.334;3.244;2022-12-28T09:11:35;9.90;99.90
22813;DHT22;11573;51.334;3.244;2022-12-28T09:14:04;9.80;99.90
22813;DHT22;11573;51.334;3.244;2022-12-28T09:16:32;9.80;99.90
22813;DHT22;11573;51.334;3.244;2022-12-28T09:19:01;9.80;99.90
22813;DHT22;11573;51.334;3.244;2022-12-28T09:21:31;9.70;99.90
22813;DHT22;11573;51.334;3.244;2022-12-28T09:23:58;9.70;99.90
22813;DHT22;11573;51.334;3.244;2022-12-28T09:26:28;9.80;99.90
22813;DHT22;11573;51.334;3.244;2022-12-28T09:29:01;9.80;99.90
22813;DHT22;11573;51.334;3.244;2022-12-28T09:31:30;9.70;99.90
22813;DHT22;11573;51.334;3.244;2022-12-28T09:33:57;9.70;99.90
22813;DHT22;11573;51.334;3.244;2022-12-28T09:36:44;9.70;99.90
22813;DHT22;11573;51.334;3.244;2022-12-28T09:39:14;9.70;99.90
22813;DHT22;11573;51.334;3.244;2022-12-28T09:41:58;9.70;99.90
22813;DHT22;11573;51.334;3.244;2022-12-28T09:49:27;9.70;99.90
22813;DHT22;11573;51.334;3.244;2022-12-28T09:52:05;9.70;99.90
22813;DHT22;11573;51.334;3.244;2022-12-28T09:54:35;9.60;99.90
22813;DHT22;11573;51.334;3.244;2022-12-28T09:57:02;9.60;99.90
22813;DHT22;11573;51.334;3.244;2022-12-28T09:59:31;9.70;99.90
22813;DHT22;11573;51.334;3.244;2022-12-28T10:02:02;9.70;99.90
22813;DHT22;11573;51.334;3.244;2022-12-28T10:04:29;9.70;99.90
22813;DHT22;11573;51.334;3.244;2022-12-28T10:06:56;9.70;99.90
22813;DHT22;11573;51.334;3.244;2022-12-28T10:09:29;9.70;99.90
22813;DHT22;11573;51.334;3.244;2022-12-28T10:11:58;9.60;99.90
22813;DHT22;11573;51.334;3.244;2022-12-28T10:14:29;9.70;99.90
22813;DHT22;11573;51.334;3.244;2022-12-28T10:17:00;9.70;99.90
22813;DHT22;11573;51.334;3.244;2022-12-28T10:19:28;9.70;99.90
22813;DHT22;11573;51.334;3.244;2022-12-28T10:22:06;9.70;99.90
22813;DHT22;11573;51.334;3.244;2022-12-28T10:24:34;9.70;99.90
22813;DHT22;11573;51.334;3.244;2022-12-28T10:27:05;9.70;99.90
22813;DHT22;11573;51.334;3.244;2022-12-28T10:29:32;9.60;99.90
22813;DHT22;11573;51.334;3.244;2022-12-28T10:32:02;9.70;99.90
22813;DHT22;11573;51.334;3.244;2022-12-28T10:34:31;9.70;99.90
22813;DHT22;11573;51.334;3.244;2022-12-28T10:37:13;9.70;99.90
22813;DHT22;11573;51.334;3.244;2022-12-28T10:40:15;9.70;99.90
22813;DHT22;11573;51.334;3.244;2022-12-28T10:42:43;9.70;99.90
22813;DHT22;11573;51.334;3.244;2022-12-28T10:45:23;9.80;99.90
22813;DHT22;11573;51.334;3.244;2022-12-28T10:47:52;9.80;99.90
22813;DHT22;11573;51.334;3.244;2022-12-28T10:50:53;9.80;99.90
22813;DHT22;11573;51.334;3.244;2022-12-28T10:53:29;9.80;99.90
22813;DHT22;11573;51.334;3.244;2022-12-28T10:58:41;9.90;99.90
22813;DHT22;11573;51.334;3.244;2022-12-28T11:04:03;9.90;99.90
22813;DHT22;11573;51.334;3.244;2022-12-28T11:07:20;10.00;99.90
22813;DHT22;11573;51.334;3.244;2022-12-28T11:09:31;10.00;99.90
22813;DHT22;11573;51.334;3.244;2022-12-28T11:12:21;10.00;99.90
22813;DHT22;11573;51.334;3.244;2022-12-28T11:14:49;10.00;99.90
22813;DHT22;11573;51.334;3.244;2022-12-28T11:17:26;10.10;99.90
22813;DHT22;11573;51.334;3.244;2022-12-28T11:20:05;10.10;99.90
22813;DHT22;11573;51.334;3.244;2022-12-28T11:22:33;10.10;99.90
22813;DHT22;11573;51.334;3.244;2022-12-28T11:25:01;10.10;99.90
22813;DHT22;11573;51.334;3.244;2022-12-28T11:27:28;10.10;99.90
22813;DHT22;11573;51.334;3.244;2022-12-28T11:29:56;10.20;99.90
22813;DHT22;11573;51.334;3.244;2022-12-28T11:32:27;10.20;99.90
22813;DHT22;11573;51.334;3.244;2022-12-28T11:34:56;10.10;99.90
22813;DHT22;11573;51.334;3.244;2022-12-28T11:37:23;10.10;99.90
22813;DHT22;11573;51.334;3.244;2022-12-28T11:39:52;10.20;99.90
22813;DHT22;11573;51.334;3.244;2022-12-28T11:45:15;10.20;99.90
22813;DHT22;11573;51.334;3.244;2022-12-28T11:47:43;10.20;99.90
22813;DHT22;11573;51.334;3.244;2022-12-28T11:53:20;10.20;99.90
22813;DHT22;11573;51.334;3.244;2022-12-28T11:56:08;10.30;99.90
22813;DHT22;11573;51.334;3.244;2022-12-28T12:01:39;10.30;99.90
22813;DHT22;11573;51.334;3.244;2022-12-28T12:09:25;10.50;99.90
22813;DHT22;11573;51.334;3.244;2022-12-28T12:11:58;10.50;99.90
22813;DHT22;11573;51.334;3.244;2022-12-28T12:14:37;10.60;99.90
22813;DHT22;11573;51.334;3.244;2022-12-28T12:17:22;10.60;99.90
22813;DHT22;11573;51.334;3.244;2022-12-28T12:19:58;10.70;99.90
22813;DHT22;11573;51.334;3.244;2022-12-28T12:22:33;10.80;99.90
22813;DHT22;11573;51.334;3.244;2022-12-28T12:27:59;10.80;99.90
22813;DHT22;11573;51.334;3.244;2022-12-28T12:30:28;10.90;99.90
22813;DHT22;11573;51.334;3.244;2022-12-28T12:33:04;10.90;99.90
22813;DHT22;11573;51.334;3.244;2022-12-28T12:41:23;11.10;99.90
22813;DHT22;11573;51.334;3.244;2022-12-28T12:44:28;11.10;99.90
22813;DHT22;11573;51.334;3.244;2022-12-28T13:01:11;11.00;99.90
22813;DHT22;11573;51.334;3.244;2022-12-28T13:03:47;11.00;99.90
22813;DHT22;11573;51.334;3.244;2022-12-28T13:06:19;11.00;99.90
22813;DHT22;11573;51.334;3.244;2022-12-28T13:08:59;11.00;99.90
22813;DHT22;11573;51.334;3.244;2022-12-28T13:11:35;11.10;99.90
22813;DHT22;11573;51.334;3.244;2022-12-28T13:14:02;11.20;99.90
22813;DHT22;11573;51.334;3.244;2022-12-28T13:16:30;11.20;99.90
22813;DHT22;11573;51.334;3.244;2022-12-28T13:18:59;11.20;99.90
22813;DHT22;11573;51.334;3.244;2022-12-28T13:21:28;11.10;99.90
22813;DHT22;11573;51.334;3.244;2022-12-28T13:23:55;11.10;99.90
22813;DHT22;11573;51.334;3.244;2022-12-28T13:26:28;11.10;99.90
22813;DHT22;11573;51.334;3.244;2022-12-28T13:28:58;11.20;99.90
22813;DHT22;11573;51.334;3.244;2022-12-28T13:34:13;11.20;99.90
22813;DHT22;11573;51.334;3.244;2022-12-28T13:39:20;11.10;99.90
22813;DHT22;11573;51.334;3.244;2022-12-28T13:41:58;11.10;99.90
22813;DHT22;11573;51.334;3.244;2022-12-28T13:44:44;11.00;99.90
22813;DHT22;11573;51.334;3.244;2022-12-28T13:52:41;11.00;99.90
22813;DHT22;11573;51.334;3.244;2022-12-28T13:55:33;11.00;99.90
22813;DHT22;11573;51.334;3.244;2022-12-28T13:58:15;10.90;99.90
22813;DHT22;11573;51.334;3.244;2022-12-28T14:00:45;10.90;99.90
22813;DHT22;11573;51.334;3.244;2022-12-28T14:03:14;10.90;99.90
22813;DHT22;11573;51.334;3.244;2022-12-28T14:05:44;10.90;99.90
22813;DHT22;11573;51.334;3.244;2022-12-28T14:08:14;10.80;99.90
22813;DHT22;11573;51.334;3.244;2022-12-28T14:10:41;10.80;99.90
22813;DHT22;11573;51.334;3.244;2022-12-28T14:13:09;10.80;99.90
22813;DHT22;11573;51.334;3.244;2022-12-28T14:15:37;10.70;99.90
22813;DHT22;11573;51.334;3.244;2022-12-28T14:18:07;10.70;99.90
22813;DHT22;11573;51.334;3.244;2022-12-28T14:20:52;10.60;99.90
22813;DHT22;11573;51.334;3.244;2022-12-28T14:23:31;10.60;99.90
22813;DHT22;11573;51.334;3.244;2022-12-28T14:26:01;10.60;99.90
22813;DHT22;11573;51.334;3.244;2022-12-28T14:28:49;10.50;99.90
22813;DHT22;11573;51.334;3.244;2022-12-28T14:31:20;10.50;99.90
22813;DHT22;11573;51.334;3.244;2022-12-28T14:34:04;10.40;99.90
22813;DHT22;11573;51.334;3.244;2022-12-28T14:36:42;10.40;99.90
22813;DHT22;11573;51.334;3.244;2022-12-28T14:39:31;10.40;99.90
22813;DHT22;11573;51.334;3.244;2022-12-28T14:42:05;10.40;99.90
22813;DHT22;11573;51.334;3.244;2022-12-28T14:44:36;10.30;99.90
22813;DHT22;11573;51.334;3.244;2022-12-28T14:47:32;10.30;99.90
22813;DHT22;11573;51.334;3.244;2022-12-28T14:50:02;10.20;99.90
22813;DHT22;11573;51.334;3.244;2022-12-28T14:54:56;10.20;99.90
22813;DHT22;11573;51.334;3.244;2022-12-28T14:57:33;10.20;99.90
22813;DHT22;11573;51.334;3.244;2022-12-28T15:00:17;10.20;99.90
22813;DHT22;11573;51.334;3.244;2022-12-28T15:02:47;10.20;99.90
22813;DHT22;11573;51.334;3.244;2022-12-28T15:05:44;10.10;99.90
22813;DHT22;11573;51.334;3.244;2022-12-28T15:08:11;10.10;99.90
22813;DHT22;11573;51.334;3.244;2022-12-28T15:10:47;10.10;99.90
22813;DHT22;11573;51.334;3.244;2022-12-28T15:13:16;10.10;99.90
22813;DHT22;11573;51.334;3.244;2022-12-28T15:15:43;10.10;99.90
22813;DHT22;11573;51.334;3.244;2022-12-28T15:18:11;10.00;99.90
22813;DHT22;11573;51.334;3.244;2022-12-28T15:20:39;10.00;99.90
22813;DHT22;11573;51.334;3.244;2022-12-28T15:23:06;10.00;99.90
22813;DHT22;11573;51.334;3.244;2022-12-28T15:25:33;10.00;99.90
22813;DHT22;11573;51.334;3.244;2022-12-28T15:28:00;10.00;99.90
22813;DHT22;11573;51.334;3.244;2022-12-28T15:30:27;10.00;99.90
22813;DHT22;11573;51.334;3.244;2022-12-28T15:32:55;9.90;99.90
22813;DHT22;11573;51.334;3.244;2022-12-28T15:35:22;9.90;99.90
22813;DHT22;11573;51.334;3.244;2022-12-28T15:37:49;9.90;99.90
22813;DHT22;11573;51.334;3.244;2022-12-28T15:40:16;9.90;99.90
22813;DHT22;11573;51.334;3.244;2022-12-28T15:42:45;9.90;99.90
22813;DHT22;11573;51.334;3.244;2022-12-28T15:45:12;9.90;99.90
22813;DHT22;11573;51.334;3.244;2022-12-28T15:47:39;9.90;99.90
22813;DHT22;11573;51.334;3.244;2022-12-28T15:50:07;9.90;99.90
22813;DHT22;11573;51.334;3.244;2022-12-28T15:52:34;9.90;99.90
22813;DHT22;11573;51.334;3.244;2022-12-28T15:55:01;9.90;99.90
22813;DHT22;11573;51.334;3.244;2022-12-28T15:57:28;9.90;99.90
22813;DHT22;11573;51.334;3.244;2022-12-28T15:59:55;9.90;99.90
22813;DHT22;11573;51.334;3.244;2022-12-28T16:02:22;9.90;99.90
22813;DHT22;11573;51.334;3.244;2022-12-28T16:04:50;9.90;99.90
22813;DHT22;11573;51.334;3.244;2022-12-28T16:07:17;9.80;99.90
22813;DHT22;11573;51.334;3.244;2022-12-28T16:09:45;9.80;99.90
22813;DHT22;11573;51.334;3.244;2022-12-28T16:12:12;9.80;99.90
22813;DHT22;11573;51.334;3.244;2022-12-28T16:14:45;9.80;99.90
22813;DHT22;11573;51.334;3.244;2022-12-28T16:17:12;9.80;99.90
22813;DHT22;11573;51.334;3.244;2022-12-28T16:19:39;9.80;99.90
22813;DHT22;11573;51.334;3.244;2022-12-28T16:22:06;9.80;99.90
22813;DHT22;11573;51.334;3.244;2022-12-28T16:24:33;9.80;99.90
22813;DHT22;11573;51.334;3.244;2022-12-28T16:27:02;9.80;99.90
22813;DHT22;11573;51.334;3.244;2022-12-28T16:29:29;9.80;99.90
22813;DHT22;11573;51.334;3.244;2022-12-28T16:31:58;9.80;99.90
22813;DHT22;11573;51.334;3.244;2022-12-28T16:34:25;9.70;99.90
22813;DHT22;11573;51.334;3.244;2022-12-28T16:36:54;9.70;99.90
22813;DHT22;11573;51.334;3.244;2022-12-28T16:39:26;9.70;99.90
22813;DHT22;11573;51.334;3.244;2022-12-28T16:41:54;9.70;99.90
22813;DHT22;11573;51.334;3.244;2022-12-28T16:44:24;9.70;99.90
22813;DHT22;11573;51.334;3.244;2022-12-28T16:46:55;9.70;99.90
22813;DHT22;11573;51.334;3.244;2022-12-28T16:49:25;9.70;99.90
22813;DHT22;11573;51.334;3.244;2022-12-28T16:51:52;9.70;99.90
22813;DHT22;11573;51.334;3.244;2022-12-28T16:54:21;9.70;99.90
22813;DHT22;11573;51.334;3.244;2022-12-28T16:56:49;9.70;99.90
22813;DHT22;11573;51.334;3.244;2022-12-28T16:59:22;9.70;99.90
22813;DHT22;11573;51.334;3.244;2022-12-28T17:01:54;9.80;99.90
22813;DHT22;11573;51.334;3.244;2022-12-28T17:04:22;9.70;99.90
22813;DHT22;11573;51.334;3.244;2022-12-28T17:06:50;9.70;99.90
22813;DHT22;11573;51.334;3.244;2022-12-28T17:09:18;9.80;99.90
22813;DHT22;11573;51.334;3.244;2022-12-28T17:11:49;9.80;99.90
22813;DHT22;11573;51.334;3.244;2022-12-28T17:14:17;9.80;99.90
22813;DHT22;11573;51.334;3.244;2022-12-28T17:17:05;9.80;99.90
22813;DHT22;11573;51.334;3.244;2022-12-28T17:19:32;9.80;99.90
22813;DHT22;11573;51.334;3.244;2022-12-28T17:21:59;9.80;99.90
22813;DHT22;11573;51.334;3.244;2022-12-28T17:24:26;9.80;99.90
22813;DHT22;11573;51.334;3.244;2022-12-28T17:26:53;9.90;99.90
22813;DHT22;11573;51.334;3.244;2022-12-28T17:29:20;9.90;99.90
22813;DHT22;11573;51.334;3.244;2022-12-28T17:31:47;9.90;99.90
22813;DHT22;11573;51.334;3.244;2022-12-28T17:34:14;9.90;99.90
22813;DHT22;11573;51.334;3.244;2022-12-28T17:36:41;9.90;99.90
22813;DHT22;11573;51.334;3.244;2022-12-28T17:39:08;9.90;99.90
22813;DHT22;11573;51.334;3.244;2022-12-28T17:41:35;9.90;99.90
22813;DHT22;11573;51.334;3.244;2022-12-28T17:44:03;10.00;99.90
22813;DHT22;11573;51.334;3.244;2022-12-28T17:46:31;10.00;99.90